EW4049 Weather Reports


Display with metric or nautical units.
time (UTC)temp
F
wind
direction
speed
MPH
gust
MPH
rain 1hr
in
rain 24hr
in
rain mn
in
humidity
%
barometer
mb
20210618094533 70 264 3.0 8.0 0.00 0.00 0.00 26 1029.3
20210618094103 70 244 3.0 7.0 0.00 0.00 0.00 26 1029.3
20210618093551 70 249 1.0 6.0 0.00 0.00 0.00 27 1029.3
20210618093044 70 248 3.0 5.0 0.00 0.00 0.00 27 1029.3
20210618092515 69 248 1.0 4.0 0.00 0.00 0.00 28 1029.3
20210618092043 68 238 1.0 4.0 0.00 0.00 0.00 28 1029.3
20210618091535 67 252 2.0 4.0 0.00 0.00 0.00 30 1029.3
20210618091104 66 252 0.0 7.0 0.00 0.00 0.00 33 1029.3
20210618090559 65 251 1.0 7.0 0.00 0.00 0.00 32 1029.4
20210618090033 64 262 0.0 1.0 0.00 0.00 0.00 34 1029.4
20210618085516 66 212 0.0 1.0 0.00 0.00 0.00 33 1029.4
20210618084558 69 237 1.0 4.0 0.00 0.00 0.00 28 1029.3
20210618084030 68 250 0.0 5.0 0.00 0.00 0.00 29 1029.3
20210618083525 68 256 1.0 5.0 0.00 0.00 0.00 30 1029.2
20210618083020 69 256 1.0 5.0 0.00 0.00 0.00 27 1029.2
20210618082604 69 245 0.0 3.0 0.00 0.00 0.00 27 1029.2
20210618082056 69 259 0.0 3.0 0.00 0.00 0.00 28 1029.2
20210618081542 70 253 0.0 4.0 0.00 0.00 0.00 27 1029.2
20210618081037 71 226 0.0 4.0 0.00 0.00 0.00 27 1029.2
20210618080533 71 247 1.0 9.0 0.00 0.00 0.00 27 1029.2
20210618080031 71 241 1.0 9.0 0.00 0.00 0.00 27 1029.4
20210618075526 71 261 1.0 7.0 0.00 0.00 0.00 26 1029.3
20210618075024 71 245 2.0 7.0 0.00 0.00 0.00 27 1029.2
20210618074532 69 269 2.0 5.0 0.00 0.00 0.00 28 1029.3
20210618074013 69 252 0.0 9.0 0.00 0.00 0.00 31 1029.3
20210618073512 67 235 2.0 9.0 0.00 0.00 0.00 29 1029.2
20210618073012 68 257 0.0 5.0 0.00 0.00 0.00 29 1029.2
20210618072520 69 220 1.0 6.0 0.00 0.00 0.00 29 1029.2
20210618072020 68 248 1.0 6.0 0.00 0.00 0.00 28 1029.2
20210618071527 68 278 0.0 2.0 0.00 0.00 0.00 31 1029.2
20210618071029 70 256 0.0 5.0 0.00 0.00 0.00 30 1029.3
20210618070538 73 269 0.0 9.0 0.00 0.00 0.00 27 1029.3
20210618070029 73 264 3.0 9.0 0.00 0.00 0.00 25 1029.1
20210618065517 73 240 3.0 8.0 0.00 0.00 0.00 25 1029.2
20210618065025 73 248 3.0 11.0 0.00 0.00 0.00 25 1029.3
20210618064528 73 240 4.0 12.0 0.00 0.00 0.00 25 1029.2
20210618064028 72 246 4.0 12.0 0.00 0.00 0.00 26 1029.4
20210618063537 72 234 4.0 11.0 0.00 0.00 0.00 26 1029.3
20210618063018 71 238 3.0 7.0 0.00 0.00 0.00 27 1029.5
20210618062518 71 245 1.0 5.0 0.00 0.00 0.00 28 1029.6
20210618062026 73 219 1.0 10.0 0.00 0.00 0.00 27 1029.5
20210618061525 73 248 3.0 10.0 0.00 0.00 0.00 25 1029.4
20210618061025 72 243 3.0 7.0 0.00 0.00 0.00 26 1029.4
20210618060528 72 255 1.0 6.0 0.00 0.00 0.00 27 1029.5
20210618060040 73 248 0.0 6.0 0.00 0.00 0.00 27 1029.5
20210618055603 73 258 1.0 6.0 0.00 0.00 0.00 25 1029.5
20210618055042 72 242 2.0 9.0 0.00 0.00 0.00 26 1029.4
20210618054536 71 266 2.0 10.0 0.00 0.00 0.00 27 1029.6
20210618054104 69 238 3.0 10.0 0.00 0.00 0.00 29 1029.5
20210618053559 65 297 2.0 4.0 0.00 0.00 0.00 33 1029.5
20210618053046 63 251 1.0 5.0 0.00 0.00 0.00 39 1029.5
20210618052525 62 148 1.0 5.0 0.00 0.00 0.00 42 1029.9
20210618052045 61 112 2.0 3.0 0.00 0.00 0.00 42 1029.8
20210618051541 61 328 1.0 2.0 0.00 0.00 0.00 43 1029.7
20210618051026 61 73 0.0 2.0 0.00 0.00 0.00 44 1029.7
20210618050521 61 287 0.0 2.0 0.00 0.00 0.00 43 1029.7
20210618050102 61 224 0.0 2.0 0.00 0.00 0.00 43 1029.7
20210618045545 61 245 0.0 3.0 0.00 0.00 0.00 43 1029.7
20210618045028 61 268 1.0 3.0 0.00 0.00 0.00 43 1029.8
20210618044604 62 36 0.0 1.0 0.00 0.00 0.00 43 1029.8
20210618044036 62 237 0.0 1.0 0.00 0.00 0.00 43 1029.8
20210618043604 63 252 0.0 2.0 0.00 0.00 0.00 43 1029.9
20210618043058 63 246 0.0 2.0 0.00 0.00 0.00 40 1029.9
20210618042555 63 46 0.0 1.0 0.00 0.00 0.00 41 1029.9
20210618042043 64 43 0.0 1.0 0.00 0.00 0.00 41 1029.9
20210618041536 64 252 0.0 1.0 0.00 0.00 0.00 38 1029.9
20210618041104 65 252 0.0 2.0 0.00 0.00 0.00 37 1029.8
20210618040559 65 252 0.0 2.0 0.00 0.00 0.00 37 1029.8
20210618040042 65 253 1.0 2.0 0.00 0.00 0.00 37 1029.8
20210618035059 65 245 0.0 1.0 0.00 0.00 0.00 38 1029.8
20210618034552 66 250 0.0 1.0 0.00 0.00 0.00 39 1029.8
20210618034040 66 251 0.0 0.0 0.00 0.00 0.00 36 1029.8
20210618033535 66 251 0.0 0.0 0.00 0.00 0.00 35 1029.8
20210618033032 66 251 0.0 0.0 0.00 0.00 0.00 35 1029.8
20210618032600 66 251 0.0 0.0 0.00 0.00 0.00 35 1029.8
20210618032031 67 251 0.0 0.0 0.00 0.00 0.00 35 1029.8
20210618031059 67 250 0.0 0.0 0.00 0.00 0.00 37 1029.8
20210618030553 67 250 0.0 0.0 0.00 0.00 0.00 36 1029.8
20210618030032 68 245 0.0 1.0 0.00 0.00 0.00 36 1029.7
20210618025516 68 243 0.0 2.0 0.00 0.00 0.00 35 1029.7
20210618025111 68 243 1.0 2.0 0.00 0.00 0.00 35 1029.8
20210618024559 69 255 1.0 2.0 0.00 0.00 0.00 35 1029.7
20210618024032 70 253 0.0 2.0 0.00 0.00 0.00 32 1029.6
20210618023607 70 253 0.0 3.0 0.00 0.00 0.00 32 1029.6
20210618023053 70 253 2.0 3.0 0.00 0.00 0.00 32 1029.6
20210618022547 70 251 2.0 2.0 0.00 0.00 0.00 32 1029.7
20210618022043 69 248 0.0 1.0 0.00 0.00 0.00 34 1029.7
20210618021532 70 235 0.0 1.0 0.00 0.00 0.00 34 1029.8
20210618021100 71 251 0.0 1.0 0.00 0.00 0.00 33 1029.8
20210618020547 71 258 0.0 2.0 0.00 0.00 0.00 32 1029.7
20210618020029 71 263 1.0 3.0 0.00 0.00 0.00 32 1029.7
20210618015553 72 248 1.0 3.0 0.00 0.00 0.00 33 1029.8
20210618015041 72 264 0.0 0.0 0.00 0.00 0.00 32 1030.0
20210618014538 72 264 0.0 1.0 0.00 0.00 0.00 32 1029.9
20210618014031 73 264 0.0 1.0 0.00 0.00 0.00 31 1029.9
20210618013519 73 259 0.0 1.0 0.00 0.00 0.00 29 1029.8
20210618013107 73 259 0.0 1.0 0.00 0.00 0.00 29 1029.9
20210618012554 74 259 0.0 1.0 0.00 0.00 0.00 28 1029.9
20210618012035 75 265 0.0 5.0 0.00 0.00 0.00 28 1029.8
20210618011603 75 245 0.0 5.0 0.00 0.00 0.00 27 1029.8
20210618011059 75 262 1.0 6.0 0.00 0.00 0.00 27 1029.9
20210618010546 75 261 2.0 5.0 0.00 0.00 0.00 27 1029.8
20210618010028 75 244 1.0 5.0 0.00 0.00 0.00 27 1029.8
20210618005605 76 250 0.0 7.0 0.00 0.00 0.00 26 1029.8
20210618005054 76 260 1.0 7.0 0.00 0.00 0.00 27 1029.8
20210618004541 76 8 1.0 3.0 0.00 0.00 0.00 26 1029.7
20210618004020 76 55 0.0 5.0 0.00 0.00 0.00 26 1029.7
20210618003550 76 323 1.0 6.0 0.00 0.00 0.00 26 1029.6
20210618003045 76 239 3.0 6.0 0.00 0.00 0.00 25 1029.6
20210618002534 77 248 1.0 6.0 0.00 0.00 0.00 27 1029.5
20210618002108 77 249 2.0 13.0 0.00 0.00 0.00 27 1029.5
20210618001557 77 252 1.0 13.0 0.00 0.00 0.00 25 1029.5
20210618001054 77 254 4.0 11.0 0.00 0.00 0.00 25 1029.6
20210618000548 76 229 4.0 14.0 0.00 0.00 0.00 26 1029.5
20210618000029 76 233 5.0 14.0 0.00 0.00 0.00 26 1029.6
20210617235546 76 278 3.0 10.0 0.00 0.00 0.00 25 1029.9
20210617235041 76 79 3.0 10.0 0.00 0.00 0.00 25 1030.1
20210617234536 76 145 2.0 10.0 0.00 0.00 0.00 24 1030.2
20210617234025 76 84 4.0 11.0 0.00 0.00 0.00 24 1030.1
20210617233517 76 228 2.0 11.0 0.00 0.00 0.00 25 1030.1
20210617233108 76 140 4.0 15.0 0.00 0.00 0.00 25 1030.1
20210617232556 77 108 2.0 15.0 0.00 0.00 0.00 25 1030.1
20210617232053 77 231 2.0 7.0 0.00 0.00 0.00 26 1030.1
20210617231526 77 122 2.0 15.0 0.00 0.00 0.00 24 1030.2
20210617231056 77 83 5.0 15.0 0.00 0.00 0.00 24 1030.2
20210617230551 77 221 3.0 6.0 0.00 0.00 0.00 24 1030.3
20210617230029 77 224 2.0 10.0 0.00 0.00 0.00 25 1030.4
20210617225513 76 110 1.0 10.0 0.00 0.00 0.00 25 1030.3
20210617225109 76 236 1.0 10.0 0.00 0.00 0.00 24 1030.3
20210617224621 76 231 4.0 10.0 0.00 0.00 0.00 26 1030.1
20210617224059 76 186 3.0 14.0 0.00 0.00 0.00 26 1030.3
20210617223548 75 228 5.0 14.0 0.00 0.00 0.00 26 1030.2
20210617223043 75 221 5.0 15.0 0.00 0.00 0.00 27 1030.3
20210617222529 75 354 3.0 15.0 0.00 0.00 0.00 27 1030.3
20210617222103 75 236 2.0 6.0 0.00 0.00 0.00 31 1030.5
20210617221536 75 232 4.0 6.0 0.00 0.00 0.00 27 1030.5
20210617221029 76 237 3.0 3.0 0.00 0.00 0.00 29 1030.4
20210617220516 77 250 0.0 1.0 0.00 0.00 0.00 26 1030.1
20210617220103 77 263 0.0 4.0 0.00 0.00 0.00 26 1030.1
20210617215541 78 1 1.0 8.0 0.00 0.00 0.00 24 1030.2
20210617215034 78 33 4.0 17.0 0.00 0.00 0.00 24 1030.2
20210617214603 79 24 10.0 17.0 0.00 0.00 0.00 22 1030.3
20210617214059 80 259 0.0 9.0 0.00 0.00 0.00 22 1030.3
20210617213529 80 359 4.0 14.0 0.00 0.00 0.00 24 1030.4
20210617213105 80 339 3.0 7.0 0.00 0.00 0.00 27 1030.5
20210617212553 80 40 0.0 4.0 0.00 0.00 0.00 25 1030.4
20210617212048 79 25 1.0 3.0 0.00 0.00 0.00 22 1030.4
20210617211536 79 243 0.0 1.0 0.00 0.00 0.00 22 1030.4
20210617211032 80 257 0.0 3.0 0.00 0.00 0.00 23 1030.3
20210617210601 80 254 1.0 3.0 0.00 0.00 0.00 23 1030.3
20210617210045 81 331 0.0 4.0 0.00 0.00 0.00 21 1030.3
20210617205603 81 93 2.0 8.0 0.00 0.00 0.00 20 1030.4
20210617205030 81 42 6.0 8.0 0.00 0.00 0.00 20 1030.4
20210617204605 81 60 0.0 6.0 0.00 0.00 0.00 19 1030.4
20210617204053 81 225 1.0 5.0 0.00 0.00 0.00 21 1030.4
20210617203550 82 226 1.0 5.0 0.00 0.00 0.00 20 1030.4
20210617203043 82 204 0.0 6.0 0.00 0.00 0.00 21 1030.3
20210617202530 81 31 0.0 7.0 0.00 0.00 0.00 21 1030.2
20210617202100 81 46 2.0 12.0 0.00 0.00 0.00 19 1030.3
20210617201553 82 110 5.0 12.0 0.00 0.00 0.00 19 1030.5
20210617201024 82 74 4.0 12.0 0.00 0.00 0.00 18 1030.4
20210617200601 82 360 3.0 11.0 0.00 0.00 0.00 19 1030.5
20210617200037 82 83 7.0 14.0 0.00 0.00 0.00 18 1030.6
20210617195522 82 60 10.0 14.0 0.00 0.00 0.00 19 1030.6
20210617195109 81 57 6.0 12.0 0.00 0.00 0.00 20 1030.7
20210617194559 81 68 6.0 16.0 0.00 0.00 0.00 20 1030.8
20210617194055 81 51 6.0 16.0 0.00 0.00 0.00 19 1030.9
20210617193542 81 125 4.0 12.0 0.00 0.00 0.00 19 1030.9
20210617193011 81 53 4.0 10.0 0.00 0.00 0.00 20 1031.0
20210617192545 81 58 4.0 9.0 0.00 0.00 0.00 19 1030.9
20210617192035 81 44 5.0 10.0 0.00 0.00 0.00 19 1030.9
20210617191526 81 49 4.0 11.0 0.00 0.00 0.00 19 1031.1
20210617191019 81 66 3.0 11.0 0.00 0.00 0.00 19 1031.1
20210617190608 81 103 4.0 11.0 0.00 0.00 0.00 21 1031.1
20210617190054 81 24 4.0 11.0 0.00 0.00 0.00 20 1031.1
20210617185514 81 58 6.0 10.0 0.00 0.00 0.00 19 1031.1
20210617185104 81 49 2.0 12.0 0.00 0.00 0.00 21 1031.0
20210617184537 81 63 5.0 11.0 0.00 0.00 0.00 21 1031.1
20210617184106 81 147 4.0 11.0 0.00 0.00 0.00 20 1031.2
20210617183538 81 33 4.0 10.0 0.00 0.00 0.00 20 1031.2
20210617183104 81 81 4.0 8.0 0.00 0.00 0.00 21 1031.3
20210617182554 80 110 1.0 10.0 0.00 0.00 0.00 21 1031.3
20210617182049 80 117 3.0 10.0 0.00 0.00 0.00 21 1031.4
20210617181544 80 240 2.0 12.0 0.00 0.00 0.00 21 1031.4
20210617181016 80 47 6.0 13.0 0.00 0.00 0.00 22 1031.3
20210617180511 80 56 5.0 13.0 0.00 0.00 0.00 22 1031.3
20210617180051 81 49 2.0 12.0 0.00 0.00 0.00 21 1031.4
20210617175535 81 124 1.0 4.0 0.00 0.00 0.00 21 1031.4
20210617175022 82 131 1.0 4.0 0.00 0.00 0.00 19 1031.5
20210617174612 82 246 0.0 11.0 0.00 0.00 0.00 17 1031.3
20210617174100 83 41 7.0 11.0 0.00 0.00 0.00 15 1031.4
20210617173549 85 41 0.0 10.0 0.00 0.00 0.00 16 1031.3
20210617173045 86 49 3.0 10.0 0.00 0.00 0.00 16 1031.3
20210617172515 87 2 3.0 10.0 0.00 0.00 0.00 16 1031.3
20210617172044 87 4 3.0 8.0 0.00 0.00 0.00 15 1031.2
20210617171540 86 240 0.0 9.0 0.00 0.00 0.00 18 1031.2
20210617171035 86 18 4.0 9.0 0.00 0.00 0.00 15 1031.3
20210617170524 86 25 2.0 8.0 0.00 0.00 0.00 16 1031.5
20210617170110 86 65 3.0 8.0 0.00 0.00 0.00 15 1031.4
20210617165548 86 27 3.0 7.0 0.00 0.00 0.00 15 1031.5
20210617165044 87 37 1.0 5.0 0.00 0.00 0.00 15 1031.5
20210617164512 86 88 1.0 5.0 0.00 0.00 0.00 19 1031.5
20210617164048 85 48 1.0 4.0 0.00 0.00 0.00 16 1031.6
20210617163536 85 287 2.0 6.0 0.00 0.00 0.00 15 1031.6
20210617163031 85 234 3.0 6.0 0.00 0.00 0.00 15 1031.6
20210617162600 85 205 0.0 8.0 0.00 0.00 0.00 17 1031.8
20210617162054 84 20 4.0 15.0 0.00 0.00 0.00 16 1031.7
20210617161540 84 24 7.0 15.0 0.00 0.00 0.00 17 1031.8
20210617161019 84 290 5.0 10.0 0.00 0.00 0.00 17 1031.8
20210617160605 84 10 3.0 10.0 0.00 0.00 0.00 18 1031.8
20210617160054 84 25 2.0 9.0 0.00 0.00 0.00 17 1031.8
20210617155529 84 104 2.0 8.0 0.00 0.00 0.00 18 1031.8
20210617155105 83 205 1.0 9.0 0.00 0.00 0.00 21 1031.9
20210617154554 82 65 1.0 9.0 0.00 0.00 0.00 22 1032.0
20210617154049 81 231 0.0 4.0 0.00 0.00 0.00 27 1032.0
20210617153533 79 25 1.0 5.0 0.00 0.00 0.00 25 1032.1
20210617153013 79 72 4.0 5.0 0.00 0.00 0.00 25 1032.1
20210617152557 80 88 2.0 6.0 0.00 0.00 0.00 24 1032.2
20210617152037 80 27 4.0 6.0 0.00 0.00 0.00 25 1032.4
20210617151527 79 357 2.0 5.0 0.00 0.00 0.00 28 1032.3
20210617151109 80 27 1.0 4.0 0.00 0.00 0.00 28 1032.4
20210617150559 79 33 2.0 5.0 0.00 0.00 0.00 26 1032.3
20210617150039 79 7 2.0 5.0 0.00 0.00 0.00 26 1032.4
20210617145554 79 15 0.0 4.0 0.00 0.00 0.00 30 1032.4
20210617145048 78 3 0.0 4.0 0.00 0.00 0.00 30 1032.4
20210617144546 77 1 2.0 5.0 0.00 0.00 0.00 28 1032.4
20210617144018 76 24 1.0 5.0 0.00 0.00 0.00 30 1032.4
20210617143546 76 13 2.0 4.0 0.00 0.00 0.00 29 1032.3
20210617143042 75 341 1.0 5.0 0.00 0.00 0.00 30 1032.4
20210617142530 75 33 0.0 6.0 0.00 0.00 0.00 31 1032.3
20210617142106 74 15 2.0 6.0 0.00 0.00 0.00 30 1032.2
20210617141554 74 19 1.0 4.0 0.00 0.00 0.00 32 1032.2
20210617141050 73 16 0.0 4.0 0.00 0.00 0.00 33 1032.2
20210617140543 72 277 0.0 6.0 0.00 0.00 0.00 35 1032.2
20210617140023 71 105 0.0 1.0 0.00 0.00 0.00 35 1032.1
20210617135536 70 168 0.0 2.0 0.00 0.00 0.00 36 1032.1
20210617135033 68 74 0.0 2.0 0.00 0.00 0.00 37 1032.2
20210617134600 67 23 0.0 1.0 0.00 0.00 0.00 38 1032.2
20210617134055 66 149 0.0 1.0 0.00 0.00 0.00 38 1032.1
20210617133543 66 257 0.0 2.0 0.00 0.00 0.00 38 1032.1
20210617133036 66 321 0.0 2.0 0.00 0.00 0.00 36 1032.1
20210617132532 66 8 0.0 2.0 0.00 0.00 0.00 38 1032.1
20210617132101 65 1 0.0 3.0 0.00 0.00 0.00 37 1032.1
20210617131532 64 20 1.0 3.0 0.00 0.00 0.00 38 1032.1
20210617131025 64 225 1.0 3.0 0.00 0.00 0.00 39 1032.1
20210617130512 63 326 1.0 2.0 0.00 0.00 0.00 38 1032.1
20210617130058 63 189 0.0 3.0 0.00 0.00 0.00 39 1032.1
20210617125543 62 146 0.0 3.0 0.00 0.00 0.00 39 1032.0
20210617125031 61 39 0.0 3.0 0.00 0.00 0.00 40 1032.1
20210617124516 61 264 1.0 3.0 0.00 0.00 0.00 41 1032.1
20210617124105 61 141 1.0 4.0 0.00 0.00 0.00 40 1032.0
20210617123543 61 279 0.0 4.0 0.00 0.00 0.00 40 1032.1
20210617123031 61 266 1.0 4.0 0.00 0.00 0.00 39 1032.0
20210617122606 61 359 1.0 3.0 0.00 0.00 0.00 39 1031.9
20210617122053 60 262 1.0 3.0 0.00 0.00 0.00 39 1031.9
20210617121545 59 269 0.0 3.0 0.00 0.00 0.00 41 1031.9
20210617121034 59 18 1.0 3.0 0.00 0.00 0.00 41 1032.0
20210617120531 58 252 0.0 4.0 0.00 0.00 0.00 42 1031.9
20210617115541 58 233 0.0 2.0 0.00 0.00 0.00 41 1031.8
20210617115026 59 241 1.0 3.0 0.00 0.00 0.00 39 1031.8
20210617114602 58 267 1.0 4.0 0.00 0.00 0.00 41 1031.8
20210617114050 58 245 0.0 4.0 0.00 0.00 0.00 40 1031.8
20210617113546 56 251 1.0 4.0 0.00 0.00 0.00 42 1031.6
20210617113032 56 292 1.0 3.0 0.00 0.00 0.00 43 1031.7
20210617112528 56 314 2.0 4.0 0.00 0.00 0.00 43 1031.7
20210617112057 56 238 1.0 4.0 0.00 0.00 0.00 44 1031.6
20210617111536 56 306 0.0 3.0 0.00 0.00 0.00 44 1031.6
20210617111023 56 243 1.0 3.0 0.00 0.00 0.00 44 1031.6
20210617110519 56 217 1.0 3.0 0.00 0.00 0.00 43 1031.5
20210617110040 57 233 0.0 3.0 0.00 0.00 0.00 43 1031.5
20210617105605 56 256 1.0 2.0 0.00 0.00 0.00 43 1031.5
20210617105053 56 199 0.0 3.0 0.00 0.00 0.00 43 1031.4
20210617104548 57 251 0.0 2.0 0.00 0.00 0.00 43 1031.4
20210617104044 57 237 1.0 2.0 0.00 0.00 0.00 43 1031.3
20210617103517 57 264 1.0 2.0 0.00 0.00 0.00 43 1031.4
20210617103046 57 301 0.0 2.0 0.00 0.00 0.00 43 1031.4
20210617102540 57 198 0.0 2.0 0.00 0.00 0.00 42 1031.4
20210617102034 57 321 1.0 2.0 0.00 0.00 0.00 43 1031.4
20210617101521 57 248 0.0 3.0 0.00 0.00 0.00 43 1031.5
20210617101018 57 231 1.0 3.0 0.00 0.00 0.00 43 1031.5
20210617100606 57 255 0.0 2.0 0.00 0.00 0.00 43 1031.4
20210617100047 57 248 0.0 2.0 0.00 0.00 0.00 43 1031.5
20210617095604 57 255 1.0 2.0 0.00 0.00 0.00 42 1031.5
20210617095036 57 260 0.0 2.0 0.00 0.00 0.00 42 1031.5